sensor_id;sensor_type;location;lat;lon;timestamp;temperature;humidity
68251;DHT22;55066;51.560;4.642;2022-12-07T00:00:54;3.60;99.99
68251;DHT22;55066;51.560;4.642;2022-12-07T00:03:20;3.80;99.99
68251;DHT22;55066;51.560;4.642;2022-12-07T00:05:48;3.87;99.99
68251;DHT22;55066;51.560;4.642;2022-12-07T00:08:14;3.97;99.99
68251;DHT22;55066;51.560;4.642;2022-12-07T00:10:39;4.05;99.99
68251;DHT22;55066;51.560;4.642;2022-12-07T00:13:05;4.10;99.99
68251;DHT22;55066;51.560;4.642;2022-12-07T00:15:30;4.10;99.99
68251;DHT22;55066;51.560;4.642;2022-12-07T00:17:58;4.10;99.99
68251;DHT22;55066;51.560;4.642;2022-12-07T00:20:26;3.95;99.99
68251;DHT22;55066;51.560;4.642;2022-12-07T00:22:52;3.89;99.99
68251;DHT22;55066;51.560;4.642;2022-12-07T00:25:17;3.77;99.99
68251;DHT22;55066;51.560;4.642;2022-12-07T00:27:42;3.70;99.99
68251;DHT22;55066;51.560;4.642;2022-12-07T00:30:08;3.53;99.99
68251;DHT22;55066;51.560;4.642;2022-12-07T00:32:34;3.35;99.99
68251;DHT22;55066;51.560;4.642;2022-12-07T00:35:02;3.28;99.99
68251;DHT22;55066;51.560;4.642;2022-12-07T00:37:27;3.25;99.99
68251;DHT22;55066;51.560;4.642;2022-12-07T00:39:53;3.36;99.99
68251;DHT22;55066;51.560;4.642;2022-12-07T00:42:21;3.51;99.99
68251;DHT22;55066;51.560;4.642;2022-12-07T00:44:48;3.63;99.99
68251;DHT22;55066;51.560;4.642;2022-12-07T00:47:14;3.73;99.99
68251;DHT22;55066;51.560;4.642;2022-12-07T00:49:45;3.80;99.99
68251;DHT22;55066;51.560;4.642;2022-12-07T00:52:10;3.89;99.99
68251;DHT22;55066;51.560;4.642;2022-12-07T00:54:36;3.84;99.99
68251;DHT22;55066;51.560;4.642;2022-12-07T00:57:01;3.73;99.99
68251;DHT22;55066;51.560;4.642;2022-12-07T00:59:27;3.55;99.99
68251;DHT22;55066;51.560;4.642;2022-12-07T01:01:58;3.39;99.99
68251;DHT22;55066;51.560;4.642;2022-12-07T01:04:23;3.32;99.99
68251;DHT22;55066;51.560;4.642;2022-12-07T01:06:49;3.39;99.99
68251;DHT22;55066;51.560;4.642;2022-12-07T01:09:14;3.34;99.99
68251;DHT22;55066;51.560;4.642;2022-12-07T01:11:40;3.11;99.99
68251;DHT22;55066;51.560;4.642;2022-12-07T01:14:08;3.08;99.99
68251;DHT22;55066;51.560;4.642;2022-12-07T01:16:34;3.03;99.99
68251;DHT22;55066;51.560;4.642;2022-12-07T01:19:09;2.98;99.99
68251;DHT22;55066;51.560;4.642;2022-12-07T01:21:35;2.98;99.99
68251;DHT22;55066;51.560;4.642;2022-12-07T01:24:04;3.09;99.99
68251;DHT22;55066;51.560;4.642;2022-12-07T01:26:30;3.09;99.99
68251;DHT22;55066;51.560;4.642;2022-12-07T01:28:55;3.01;99.99
68251;DHT22;55066;51.560;4.642;2022-12-07T01:31:24;2.98;99.99
68251;DHT22;55066;51.560;4.642;2022-12-07T01:33:56;2.87;99.99
68251;DHT22;55066;51.560;4.642;2022-12-07T01:36:33;2.87;99.99
68251;DHT22;55066;51.560;4.642;2022-12-07T01:39:01;2.80;99.99
68251;DHT22;55066;51.560;4.642;2022-12-07T01:41:30;2.70;99.99
68251;DHT22;55066;51.560;4.642;2022-12-07T01:44:16;2.57;99.99
68251;DHT22;55066;51.560;4.642;2022-12-07T01:46:58;2.59;99.99
68251;DHT22;55066;51.560;4.642;2022-12-07T01:49:37;2.48;99.99
68251;DHT22;55066;51.560;4.642;2022-12-07T01:52:20;2.48;99.99
68251;DHT22;55066;51.560;4.642;2022-12-07T01:54:51;2.43;99.99
68251;DHT22;55066;51.560;4.642;2022-12-07T01:57:28;2.36;99.99
68251;DHT22;55066;51.560;4.642;2022-12-07T01:59:55;2.42;99.99
68251;DHT22;55066;51.560;4.642;2022-12-07T02:02:48;2.45;99.99
68251;DHT22;55066;51.560;4.642;2022-12-07T02:05:16;2.33;99.99
68251;DHT22;55066;51.560;4.642;2022-12-07T02:07:43;2.25;99.99
68251;DHT22;55066;51.560;4.642;2022-12-07T02:10:26;2.29;99.99
68251;DHT22;55066;51.560;4.642;2022-12-07T02:13:14;2.39;99.99
68251;DHT22;55066;51.560;4.642;2022-12-07T02:16:03;2.59;99.99
68251;DHT22;55066;51.560;4.642;2022-12-07T02:18:58;2.69;99.99
68251;DHT22;55066;51.560;4.642;2022-12-07T02:21:51;2.75;99.99
68251;DHT22;55066;51.560;4.642;2022-12-07T02:32:33;2.33;99.99
68251;DHT22;55066;51.560;4.642;2022-12-07T02:35:22;2.21;99.99
68251;DHT22;55066;51.560;4.642;2022-12-07T02:37:57;2.12;99.99
68251;DHT22;55066;51.560;4.642;2022-12-07T02:40:29;2.12;99.99
68251;DHT22;55066;51.560;4.642;2022-12-07T02:43:07;2.15;99.99
68251;DHT22;55066;51.560;4.642;2022-12-07T02:45:38;2.12;99.99
68251;DHT22;55066;51.560;4.642;2022-12-07T02:48:17;2.15;99.99
68251;DHT22;55066;51.560;4.642;2022-12-07T02:50:47;2.18;99.99
68251;DHT22;55066;51.560;4.642;2022-12-07T02:55:54;2.35;99.99
68251;DHT22;55066;51.560;4.642;2022-12-07T02:58:49;2.48;99.99
68251;DHT22;55066;51.560;4.642;2022-12-07T03:01:26;2.64;99.99
68251;DHT22;55066;51.560;4.642;2022-12-07T03:04:14;2.76;99.99
68251;DHT22;55066;51.560;4.642;2022-12-07T03:06:50;2.81;99.99
68251;DHT22;55066;51.560;4.642;2022-12-07T03:09:29;2.90;99.99
68251;DHT22;55066;51.560;4.642;2022-12-07T03:12:32;2.93;99.99
68251;DHT22;55066;51.560;4.642;2022-12-07T03:15:11;2.94;99.99
68251;DHT22;55066;51.560;4.642;2022-12-07T03:17:40;2.76;99.99
68251;DHT22;55066;51.560;4.642;2022-12-07T03:20:11;2.56;99.99
68251;DHT22;55066;51.560;4.642;2022-12-07T03:22:38;2.33;99.99
68251;DHT22;55066;51.560;4.642;2022-12-07T03:25:10;2.26;99.99
68251;DHT22;55066;51.560;4.642;2022-12-07T03:27:58;2.18;99.99
68251;DHT22;55066;51.560;4.642;2022-12-07T03:30:32;2.01;99.99
68251;DHT22;55066;51.560;4.642;2022-12-07T03:33:31;1.91;99.99
68251;DHT22;55066;51.560;4.642;2022-12-07T03:36:15;1.90;99.99
68251;DHT22;55066;51.560;4.642;2022-12-07T03:38:46;1.90;99.99
68251;DHT22;55066;51.560;4.642;2022-12-07T03:41:25;1.83;99.99
68251;DHT22;55066;51.560;4.642;2022-12-07T03:43:54;1.94;99.99
68251;DHT22;55066;51.560;4.642;2022-12-07T03:46:50;2.18;99.99
68251;DHT22;55066;51.560;4.642;2022-12-07T03:49:35;2.35;99.99
68251;DHT22;55066;51.560;4.642;2022-12-07T03:52:16;2.32;99.99
68251;DHT22;55066;51.560;4.642;2022-12-07T03:54:52;2.24;99.99
68251;DHT22;55066;51.560;4.642;2022-12-07T03:57:22;2.10;99.99
68251;DHT22;55066;51.560;4.642;2022-12-07T03:59:49;2.07;99.99
68251;DHT22;55066;51.560;4.642;2022-12-07T04:02:16;2.20;99.99
68251;DHT22;55066;51.560;4.642;2022-12-07T04:04:44;2.29;99.99
68251;DHT22;55066;51.560;4.642;2022-12-07T04:07:09;2.42;99.99
68251;DHT22;55066;51.560;4.642;2022-12-07T04:09:35;2.53;99.99
68251;DHT22;55066;51.560;4.642;2022-12-07T04:12:01;2.57;99.99
68251;DHT22;55066;51.560;4.642;2022-12-07T04:14:26;2.39;99.99
68251;DHT22;55066;51.560;4.642;2022-12-07T04:16:55;2.14;99.99
68251;DHT22;55066;51.560;4.642;2022-12-07T04:19:26;2.10;99.99
68251;DHT22;55066;51.560;4.642;2022-12-07T04:21:51;2.07;99.99
68251;DHT22;55066;51.560;4.642;2022-12-07T04:24:17;2.10;99.99
68251;DHT22;55066;51.560;4.642;2022-12-07T04:26:43;2.11;99.99
68251;DHT22;55066;51.560;4.642;2022-12-07T04:29:12;1.94;99.99
68251;DHT22;55066;51.560;4.642;2022-12-07T04:31:39;1.91;99.99
68251;DHT22;55066;51.560;4.642;2022-12-07T04:34:05;1.91;99.99
68251;DHT22;55066;51.560;4.642;2022-12-07T04:36:32;1.83;99.99
68251;DHT22;55066;51.560;4.642;2022-12-07T04:38:57;1.78;99.99
68251;DHT22;55066;51.560;4.642;2022-12-07T04:41:23;1.78;99.99
68251;DHT22;55066;51.560;4.642;2022-12-07T04:43:57;1.80;99.99
68251;DHT22;55066;51.560;4.642;2022-12-07T04:46:31;1.91;99.99
68251;DHT22;55066;51.560;4.642;2022-12-07T04:48:57;2.05;99.99
68251;DHT22;55066;51.560;4.642;2022-12-07T04:51:26;2.08;99.99
68251;DHT22;55066;51.560;4.642;2022-12-07T04:53:57;2.14;99.99
68251;DHT22;55066;51.560;4.642;2022-12-07T04:56:24;2.17;99.99
68251;DHT22;55066;51.560;4.642;2022-12-07T04:58:53;2.18;99.99
68251;DHT22;55066;51.560;4.642;2022-12-07T05:01:20;2.03;99.99
68251;DHT22;55066;51.560;4.642;2022-12-07T05:03:46;1.91;99.99
68251;DHT22;55066;51.560;4.642;2022-12-07T05:06:18;1.74;99.99
68251;DHT22;55066;51.560;4.642;2022-12-07T05:08:43;1.56;99.99
68251;DHT22;55066;51.560;4.642;2022-12-07T05:11:09;1.46;99.99
68251;DHT22;55066;51.560;4.642;2022-12-07T05:13:57;1.38;99.99
68251;DHT22;55066;51.560;4.642;2022-12-07T05:16:23;1.36;99.99
68251;DHT22;55066;51.560;4.642;2022-12-07T05:18:48;1.38;99.99
68251;DHT22;55066;51.560;4.642;2022-12-07T05:21:20;1.40;99.99
68251;DHT22;55066;51.560;4.642;2022-12-07T05:23:46;1.52;99.99
68251;DHT22;55066;51.560;4.642;2022-12-07T05:26:11;1.50;99.99
68251;DHT22;55066;51.560;4.642;2022-12-07T05:28:40;1.47;99.99
68251;DHT22;55066;51.560;4.642;2022-12-07T05:31:05;1.47;99.99
68251;DHT22;55066;51.560;4.642;2022-12-07T05:33:31;1.38;99.99
68251;DHT22;55066;51.560;4.642;2022-12-07T05:36:02;1.27;99.99
68251;DHT22;55066;51.560;4.642;2022-12-07T05:38:31;1.27;99.99
68251;DHT22;55066;51.560;4.642;2022-12-07T05:41:05;1.27;99.99
68251;DHT22;55066;51.560;4.642;2022-12-07T05:43:34;1.19;99.99
68251;DHT22;55066;51.560;4.642;2022-12-07T05:45:59;1.17;99.99
68251;DHT22;55066;51.560;4.642;2022-12-07T05:48:25;1.18;99.99
68251;DHT22;55066;51.560;4.642;2022-12-07T05:50:51;1.18;99.99
68251;DHT22;55066;51.560;4.642;2022-12-07T05:53:17;1.17;99.99
68251;DHT22;55066;51.560;4.642;2022-12-07T05:55:43;1.17;99.99
68251;DHT22;55066;51.560;4.642;2022-12-07T05:58:12;1.14;99.99
68251;DHT22;55066;51.560;4.642;2022-12-07T06:00:59;1.09;99.99
68251;DHT22;55066;51.560;4.642;2022-12-07T06:03:24;1.05;99.99
68251;DHT22;55066;51.560;4.642;2022-12-07T06:05:51;1.02;99.99
68251;DHT22;55066;51.560;4.642;2022-12-07T06:08:17;1.00;99.99
68251;DHT22;55066;51.560;4.642;2022-12-07T06:10:46;1.00;99.99
68251;DHT22;55066;51.560;4.642;2022-12-07T06:13:11;1.01;99.99
68251;DHT22;55066;51.560;4.642;2022-12-07T06:15:37;0.97;99.99
68251;DHT22;55066;51.560;4.642;2022-12-07T06:18:05;0.91;99.99
68251;DHT22;55066;51.560;4.642;2022-12-07T06:20:31;0.91;99.99
68251;DHT22;55066;51.560;4.642;2022-12-07T06:22:59;0.94;99.99
68251;DHT22;55066;51.560;4.642;2022-12-07T06:25:25;1.01;99.99
68251;DHT22;55066;51.560;4.642;2022-12-07T06:27:50;1.01;99.99
68251;DHT22;55066;51.560;4.642;2022-12-07T06:30:23;1.11;99.99
68251;DHT22;55066;51.560;4.642;2022-12-07T06:32:48;1.22;99.99
68251;DHT22;55066;51.560;4.642;2022-12-07T06:35:14;1.39;99.99
68251;DHT22;55066;51.560;4.642;2022-12-07T06:37:40;1.56;99.99
68251;DHT22;55066;51.560;4.642;2022-12-07T06:40:06;1.73;99.99
68251;DHT22;55066;51.560;4.642;2022-12-07T06:42:32;1.77;99.99
68251;DHT22;55066;51.560;4.642;2022-12-07T06:45:00;1.91;99.99
68251;DHT22;55066;51.560;4.642;2022-12-07T06:47:26;1.85;99.99
68251;DHT22;55066;51.560;4.642;2022-12-07T06:49:51;1.81;99.99
68251;DHT22;55066;51.560;4.642;2022-12-07T06:52:19;1.76;99.99
68251;DHT22;55066;51.560;4.642;2022-12-07T06:54:45;1.70;99.99
68251;DHT22;55066;51.560;4.642;2022-12-07T06:57:10;1.59;99.99
68251;DHT22;55066;51.560;4.642;2022-12-07T06:59:36;1.50;99.99
68251;DHT22;55066;51.560;4.642;2022-12-07T07:02:01;1.43;99.99
68251;DHT22;55066;51.560;4.642;2022-12-07T07:04:27;1.25;99.99
68251;DHT22;55066;51.560;4.642;2022-12-07T07:06:52;1.12;99.99
68251;DHT22;55066;51.560;4.642;2022-12-07T07:09:18;1.05;99.99
68251;DHT22;55066;51.560;4.642;2022-12-07T07:11:43;1.04;99.99
68251;DHT22;55066;51.560;4.642;2022-12-07T07:14:09;0.95;99.99
68251;DHT22;55066;51.560;4.642;2022-12-07T07:16:34;0.87;99.99
68251;DHT22;55066;51.560;4.642;2022-12-07T07:18:59;0.87;99.99
68251;DHT22;55066;51.560;4.642;2022-12-07T07:21:25;0.90;99.99
68251;DHT22;55066;51.560;4.642;2022-12-07T07:23:50;0.95;99.99
68251;DHT22;55066;51.560;4.642;2022-12-07T07:26:17;0.92;99.99
68251;DHT22;55066;51.560;4.642;2022-12-07T07:28:45;0.90;99.99
68251;DHT22;55066;51.560;4.642;2022-12-07T07:31:14;0.88;99.99
68251;DHT22;55066;51.560;4.642;2022-12-07T07:33:39;0.88;99.99
68251;DHT22;55066;51.560;4.642;2022-12-07T07:36:08;0.88;99.99
68251;DHT22;55066;51.560;4.642;2022-12-07T07:38:36;0.81;99.99
68251;DHT22;55066;51.560;4.642;2022-12-07T07:41:05;0.83;99.99
68251;DHT22;55066;51.560;4.642;2022-12-07T07:43:30;0.85;99.99
68251;DHT22;55066;51.560;4.642;2022-12-07T07:45:55;0.80;99.99
68251;DHT22;55066;51.560;4.642;2022-12-07T07:48:21;0.74;99.99
68251;DHT22;55066;51.560;4.642;2022-12-07T07:50:51;0.70;99.99
68251;DHT22;55066;51.560;4.642;2022-12-07T07:53:16;0.74;99.99
68251;DHT22;55066;51.560;4.642;2022-12-07T07:55:54;0.79;99.99
68251;DHT22;55066;51.560;4.642;2022-12-07T07:58:21;0.84;99.99
68251;DHT22;55066;51.560;4.642;2022-12-07T08:00:46;0.77;99.99
68251;DHT22;55066;51.560;4.642;2022-12-07T08:03:11;0.76;99.99
68251;DHT22;55066;51.560;4.642;2022-12-07T08:05:38;0.79;99.99
68251;DHT22;55066;51.560;4.642;2022-12-07T08:08:03;0.90;99.99
68251;DHT22;55066;51.560;4.642;2022-12-07T08:10:31;0.98;99.99
68251;DHT22;55066;51.560;4.642;2022-12-07T08:13:00;0.95;99.99
68251;DHT22;55066;51.560;4.642;2022-12-07T08:15:46;1.04;99.99
68251;DHT22;55066;51.560;4.642;2022-12-07T08:18:12;1.17;99.99
68251;DHT22;55066;51.560;4.642;2022-12-07T08:20:41;1.24;99.99
68251;DHT22;55066;51.560;4.642;2022-12-07T08:23:08;1.34;99.99
68251;DHT22;55066;51.560;4.642;2022-12-07T08:25:34;1.46;99.99
68251;DHT22;55066;51.560;4.642;2022-12-07T08:28:00;1.52;99.99
68251;DHT22;55066;51.560;4.642;2022-12-07T08:30:34;1.68;99.99
68251;DHT22;55066;51.560;4.642;2022-12-07T08:32:59;1.84;99.99
68251;DHT22;55066;51.560;4.642;2022-12-07T08:35:25;1.94;99.99
68251;DHT22;55066;51.560;4.642;2022-12-07T08:37:57;2.07;99.99
68251;DHT22;55066;51.560;4.642;2022-12-07T08:40:23;2.22;99.99
68251;DHT22;55066;51.560;4.642;2022-12-07T08:42:49;2.41;99.99
68251;DHT22;55066;51.560;4.642;2022-12-07T08:45:16;2.43;99.99
68251;DHT22;55066;51.560;4.642;2022-12-07T08:48:08;2.46;99.99
68251;DHT22;55066;51.560;4.642;2022-12-07T08:50:36;2.48;99.99
68251;DHT22;55066;51.560;4.642;2022-12-07T08:53:02;2.43;99.99
68251;DHT22;55066;51.560;4.642;2022-12-07T08:55:30;2.53;99.99
68251;DHT22;55066;51.560;4.642;2022-12-07T08:57:58;2.66;99.99
68251;DHT22;55066;51.560;4.642;2022-12-07T09:00:26;3.01;99.99
68251;DHT22;55066;51.560;4.642;2022-12-07T09:02:53;3.34;99.99
68251;DHT22;55066;51.560;4.642;2022-12-07T09:05:19;3.56;99.99
68251;DHT22;55066;51.560;4.642;2022-12-07T09:07:46;3.77;99.99
68251;DHT22;55066;51.560;4.642;2022-12-07T09:10:13;3.94;99.99
68251;DHT22;55066;51.560;4.642;2022-12-07T09:12:38;4.01;99.99
68251;DHT22;55066;51.560;4.642;2022-12-07T09:15:05;4.02;99.99
68251;DHT22;55066;51.560;4.642;2022-12-07T09:17:32;4.01;99.99
68251;DHT22;55066;51.560;4.642;2022-12-07T09:20:01;3.89;99.99
68251;DHT22;55066;51.560;4.642;2022-12-07T09:22:30;3.87;99.99
68251;DHT22;55066;51.560;4.642;2022-12-07T09:24:57;3.98;99.99
68251;DHT22;55066;51.560;4.642;2022-12-07T09:27:23;3.97;99.99
68251;DHT22;55066;51.560;4.642;2022-12-07T09:29:52;3.80;99.99
68251;DHT22;55066;51.560;4.642;2022-12-07T09:32:17;3.70;99.99
68251;DHT22;55066;51.560;4.642;2022-12-07T09:34:43;3.55;99.99
68251;DHT22;55066;51.560;4.642;2022-12-07T09:37:08;3.42;99.99
68251;DHT22;55066;51.560;4.642;2022-12-07T09:39:34;3.39;99.99
68251;DHT22;55066;51.560;4.642;2022-12-07T09:42:03;3.36;99.99
68251;DHT22;55066;51.560;4.642;2022-12-07T09:44:29;3.34;99.99
68251;DHT22;55066;51.560;4.642;2022-12-07T09:46:54;3.29;99.99
68251;DHT22;55066;51.560;4.642;2022-12-07T09:49:23;3.28;99.99
68251;DHT22;55066;51.560;4.642;2022-12-07T09:52:00;3.40;99.99
68251;DHT22;55066;51.560;4.642;2022-12-07T09:54:30;3.56;99.99
68251;DHT22;55066;51.560;4.642;2022-12-07T09:57:01;3.86;99.99
68251;DHT22;55066;51.560;4.642;2022-12-07T09:59:27;4.21;99.99
68251;DHT22;55066;51.560;4.642;2022-12-07T10:01:53;4.52;99.99
68251;DHT22;55066;51.560;4.642;2022-12-07T10:04:21;4.88;99.99
68251;DHT22;55066;51.560;4.642;2022-12-07T10:06:47;5.01;99.99
68251;DHT22;55066;51.560;4.642;2022-12-07T10:09:15;5.27;99.99
68251;DHT22;55066;51.560;4.642;2022-12-07T10:14:28;5.60;99.99
68251;DHT22;55066;51.560;4.642;2022-12-07T10:16:54;5.59;99.99
68251;DHT22;55066;51.560;4.642;2022-12-07T10:19:31;5.58;99.99
68251;DHT22;55066;51.560;4.642;2022-12-07T10:24:28;5.51;99.99
68251;DHT22;55066;51.560;4.642;2022-12-07T10:26:54;5.41;99.99
68251;DHT22;55066;51.560;4.642;2022-12-07T10:29:36;5.45;99.99
68251;DHT22;55066;51.560;4.642;2022-12-07T10:34:42;5.38;99.99
68251;DHT22;55066;51.560;4.642;2022-12-07T10:39:52;5.24;99.99
68251;DHT22;55066;51.560;4.642;2022-12-07T10:42:23;5.28;99.99
68251;DHT22;55066;51.560;4.642;2022-12-07T10:45:06;5.24;99.99
68251;DHT22;55066;51.560;4.642;2022-12-07T10:48:03;5.15;99.99
68251;DHT22;55066;51.560;4.642;2022-12-07T10:50:47;5.25;99.99
68251;DHT22;55066;51.560;4.642;2022-12-07T10:53:44;5.17;99.99
68251;DHT22;55066;51.560;4.642;2022-12-07T10:56:33;5.20;99.99
68251;DHT22;55066;51.560;4.642;2022-12-07T10:59:30;5.24;99.99
68251;DHT22;55066;51.560;4.642;2022-12-07T11:10:28;4.90;99.99
68251;DHT22;55066;51.560;4.642;2022-12-07T11:33:43;4.97;99.99
68251;DHT22;55066;51.560;4.642;2022-12-07T11:39:00;4.98;99.99
68251;DHT22;55066;51.560;4.642;2022-12-07T11:41:34;5.07;99.99
68251;DHT22;55066;51.560;4.642;2022-12-07T11:46:52;5.27;99.99
68251;DHT22;55066;51.560;4.642;2022-12-07T11:52:30;5.62;99.99
68251;DHT22;55066;51.560;4.642;2022-12-07T11:55:17;5.58;99.99
68251;DHT22;55066;51.560;4.642;2022-12-07T11:57:48;5.81;99.99
68251;DHT22;55066;51.560;4.642;2022-12-07T12:00:19;6.25;99.99
68251;DHT22;55066;51.560;4.642;2022-12-07T12:05:22;6.65;99.99
68251;DHT22;55066;51.560;4.642;2022-12-07T12:08:04;6.49;99.99
68251;DHT22;55066;51.560;4.642;2022-12-07T12:18:48;5.81;99.99
68251;DHT22;55066;51.560;4.642;2022-12-07T12:21:18;5.81;99.99
68251;DHT22;55066;51.560;4.642;2022-12-07T12:26:24;5.97;99.99
68251;DHT22;55066;51.560;4.642;2022-12-07T12:29:00;5.91;99.99
68251;DHT22;55066;51.560;4.642;2022-12-07T12:33:58;6.04;99.99
68251;DHT22;55066;51.560;4.642;2022-12-07T12:36:44;6.11;99.99
68251;DHT22;55066;51.560;4.642;2022-12-07T12:39:15;6.17;99.40
68251;DHT22;55066;51.560;4.642;2022-12-07T12:46:57;6.52;99.99
68251;DHT22;55066;51.560;4.642;2022-12-07T12:57:33;5.79;99.99
68251;DHT22;55066;51.560;4.642;2022-12-07T13:00:00;5.77;99.99
68251;DHT22;55066;51.560;4.642;2022-12-07T13:02:32;5.74;99.99
68251;DHT22;55066;51.560;4.642;2022-12-07T13:05:02;5.85;99.99
68251;DHT22;55066;51.560;4.642;2022-12-07T13:07:56;6.07;99.99
68251;DHT22;55066;51.560;4.642;2022-12-07T13:21:01;6.14;99.85
68251;DHT22;55066;51.560;4.642;2022-12-07T13:28:52;5.81;99.99
68251;DHT22;55066;51.560;4.642;2022-12-07T13:31:34;5.65;99.99
68251;DHT22;55066;51.560;4.642;2022-12-07T13:34:02;5.46;99.99
68251;DHT22;55066;51.560;4.642;2022-12-07T13:36:34;5.36;99.99
68251;DHT22;55066;51.560;4.642;2022-12-07T13:39:18;5.24;99.99
68251;DHT22;55066;51.560;4.642;2022-12-07T13:41:48;5.10;99.99
68251;DHT22;55066;51.560;4.642;2022-12-07T13:44:16;4.98;99.99
68251;DHT22;55066;51.560;4.642;2022-12-07T13:49:23;5.15;99.99
68251;DHT22;55066;51.560;4.642;2022-12-07T13:51:49;5.31;99.99
68251;DHT22;55066;51.560;4.642;2022-12-07T13:54:15;5.32;99.99
68251;DHT22;55066;51.560;4.642;2022-12-07T13:56:41;5.30;99.99
68251;DHT22;55066;51.560;4.642;2022-12-07T13:59:22;5.35;99.99
68251;DHT22;55066;51.560;4.642;2022-12-07T14:01:49;5.35;99.99
68251;DHT22;55066;51.560;4.642;2022-12-07T14:04:30;5.15;99.99
68251;DHT22;55066;51.560;4.642;2022-12-07T14:06:56;4.91;99.99
68251;DHT22;55066;51.560;4.642;2022-12-07T14:09:24;4.83;99.99
68251;DHT22;55066;51.560;4.642;2022-12-07T14:11:53;4.75;99.99
68251;DHT22;55066;51.560;4.642;2022-12-07T14:14:22;4.76;99.99
68251;DHT22;55066;51.560;4.642;2022-12-07T14:17:08;4.94;99.99
68251;DHT22;55066;51.560;4.642;2022-12-07T14:19:46;5.18;99.99
68251;DHT22;55066;51.560;4.642;2022-12-07T14:22:38;5.28;99.99
68251;DHT22;55066;51.560;4.642;2022-12-07T14:27:39;5.31;99.99
68251;DHT22;55066;51.560;4.642;2022-12-07T14:30:05;5.30;99.99
68251;DHT22;55066;51.560;4.642;2022-12-07T14:32:37;5.41;99.99
68251;DHT22;55066;51.560;4.642;2022-12-07T14:35:13;5.51;99.99
68251;DHT22;55066;51.560;4.642;2022-12-07T14:37:43;5.46;99.99
68251;DHT22;55066;51.560;4.642;2022-12-07T14:40:13;5.35;99.99
68251;DHT22;55066;51.560;4.642;2022-12-07T14:42:39;5.31;99.99
68251;DHT22;55066;51.560;4.642;2022-12-07T14:45:14;5.28;99.99
68251;DHT22;55066;51.560;4.642;2022-12-07T14:47:40;5.21;99.99
68251;DHT22;55066;51.560;4.642;2022-12-07T14:50:06;5.10;99.99
68251;DHT22;55066;51.560;4.642;2022-12-07T14:52:32;4.94;99.99
68251;DHT22;55066;51.560;4.642;2022-12-07T14:55:00;4.86;99.99
68251;DHT22;55066;51.560;4.642;2022-12-07T14:57:26;4.77;99.99
68251;DHT22;55066;51.560;4.642;2022-12-07T14:59:51;4.73;99.99
68251;DHT22;55066;51.560;4.642;2022-12-07T15:02:17;4.70;99.99
68251;DHT22;55066;51.560;4.642;2022-12-07T15:04:42;4.73;99.99
68251;DHT22;55066;51.560;4.642;2022-12-07T15:07:20;4.87;99.99
68251;DHT22;55066;51.560;4.642;2022-12-07T15:09:48;4.83;99.99
68251;DHT22;55066;51.560;4.642;2022-12-07T15:12:13;4.75;99.99
68251;DHT22;55066;51.560;4.642;2022-12-07T15:14:45;4.75;99.99
68251;DHT22;55066;51.560;4.642;2022-12-07T15:17:14;4.75;99.99
68251;DHT22;55066;51.560;4.642;2022-12-07T15:19:49;4.77;99.99
68251;DHT22;55066;51.560;4.642;2022-12-07T15:22:35;4.80;99.99
68251;DHT22;55066;51.560;4.642;2022-12-07T15:25:21;4.83;99.99
68251;DHT22;55066;51.560;4.642;2022-12-07T15:27:47;4.83;99.99
68251;DHT22;55066;51.560;4.642;2022-12-07T15:30:15;4.83;99.99
68251;DHT22;55066;51.560;4.642;2022-12-07T15:33:04;4.91;99.99
68251;DHT22;55066;51.560;4.642;2022-12-07T15:35:39;4.97;99.99
68251;DHT22;55066;51.560;4.642;2022-12-07T15:38:18;5.00;99.99
68251;DHT22;55066;51.560;4.642;2022-12-07T15:41:00;4.86;99.99
68251;DHT22;55066;51.560;4.642;2022-12-07T15:43:37;4.91;99.99
68251;DHT22;55066;51.560;4.642;2022-12-07T15:46:58;4.77;99.99
68251;DHT22;55066;51.560;4.642;2022-12-07T15:49:38;4.72;99.99
68251;DHT22;55066;51.560;4.642;2022-12-07T15:52:29;4.67;99.99
68251;DHT22;55066;51.560;4.642;2022-12-07T15:55:15;4.69;99.99
68251;DHT22;55066;51.560;4.642;2022-12-07T15:57:55;4.63;99.99
68251;DHT22;55066;51.560;4.642;2022-12-07T16:00:29;4.65;99.99
68251;DHT22;55066;51.560;4.642;2022-12-07T16:03:05;4.75;99.99
68251;DHT22;55066;51.560;4.642;2022-12-07T16:05:37;4.79;99.99
68251;DHT22;55066;51.560;4.642;2022-12-07T16:08:08;4.69;99.99
68251;DHT22;55066;51.560;4.642;2022-12-07T16:10:34;4.50;99.99
68251;DHT22;55066;51.560;4.642;2022-12-07T16:13:02;4.41;99.99
68251;DHT22;55066;51.560;4.642;2022-12-07T16:15:27;4.35;99.99
68251;DHT22;55066;51.560;4.642;2022-12-07T16:17:52;4.29;99.99
68251;DHT22;55066;51.560;4.642;2022-12-07T16:20:20;4.27;99.99
68251;DHT22;55066;51.560;4.642;2022-12-07T16:22:46;4.25;99.99
68251;DHT22;55066;51.560;4.642;2022-12-07T16:25:11;4.19;99.99
68251;DHT22;55066;51.560;4.642;2022-12-07T16:27:37;4.15;99.99
68251;DHT22;55066;51.560;4.642;2022-12-07T16:30:03;4.15;99.99
68251;DHT22;55066;51.560;4.642;2022-12-07T16:32:28;4.14;99.99
68251;DHT22;55066;51.560;4.642;2022-12-07T16:34:54;4.19;99.99
68251;DHT22;55066;51.560;4.642;2022-12-07T16:37:19;4.19;99.99
68251;DHT22;55066;51.560;4.642;2022-12-07T16:39:44;4.19;99.99
68251;DHT22;55066;51.560;4.642;2022-12-07T16:42:10;4.19;99.99
68251;DHT22;55066;51.560;4.642;2022-12-07T16:44:38;4.28;99.99
68251;DHT22;55066;51.560;4.642;2022-12-07T16:47:10;4.29;99.99
68251;DHT22;55066;51.560;4.642;2022-12-07T16:49:35;4.28;99.99
68251;DHT22;55066;51.560;4.642;2022-12-07T16:52:01;4.27;99.99
68251;DHT22;55066;51.560;4.642;2022-12-07T16:54:26;4.22;99.99
68251;DHT22;55066;51.560;4.642;2022-12-07T16:56:56;4.22;99.99
68251;DHT22;55066;51.560;4.642;2022-12-07T16:59:21;4.22;99.99
68251;DHT22;55066;51.560;4.642;2022-12-07T17:01:46;4.22;99.99
68251;DHT22;55066;51.560;4.642;2022-12-07T17:04:12;4.21;99.99
68251;DHT22;55066;51.560;4.642;2022-12-07T17:06:37;4.19;99.99
68251;DHT22;55066;51.560;4.642;2022-12-07T17:09:03;4.22;99.99
68251;DHT22;55066;51.560;4.642;2022-12-07T17:11:34;4.31;99.99
68251;DHT22;55066;51.560;4.642;2022-12-07T17:13:59;4.41;99.99
68251;DHT22;55066;51.560;4.642;2022-12-07T17:16:44;4.38;99.99
68251;DHT22;55066;51.560;4.642;2022-12-07T17:19:14;4.63;99.99
68251;DHT22;55066;51.560;4.642;2022-12-07T17:21:41;4.55;99.99
68251;DHT22;55066;51.560;4.642;2022-12-07T17:24:08;4.52;99.99
68251;DHT22;55066;51.560;4.642;2022-12-07T17:26:34;4.52;99.99
68251;DHT22;55066;51.560;4.642;2022-12-07T17:29:00;4.42;99.99
68251;DHT22;55066;51.560;4.642;2022-12-07T17:31:26;4.31;99.99
68251;DHT22;55066;51.560;4.642;2022-12-07T17:33:52;4.25;99.99
68251;DHT22;55066;51.560;4.642;2022-12-07T17:36:20;4.32;99.99
68251;DHT22;55066;51.560;4.642;2022-12-07T17:38:46;4.28;99.99
68251;DHT22;55066;51.560;4.642;2022-12-07T17:41:15;4.27;99.99
68251;DHT22;55066;51.560;4.642;2022-12-07T17:44:00;4.17;99.99
68251;DHT22;55066;51.560;4.642;2022-12-07T17:46:26;4.05;99.99
68251;DHT22;55066;51.560;4.642;2022-12-07T17:48:55;3.93;99.99
68251;DHT22;55066;51.560;4.642;2022-12-07T17:51:23;3.76;99.99
68251;DHT22;55066;51.560;4.642;2022-12-07T17:54:08;3.73;99.99
68251;DHT22;55066;51.560;4.642;2022-12-07T17:56:39;3.73;99.99